createdAt,value
2023-03-26T00:03:03.246Z,100061.69
2023-03-26T00:07:05.102Z,100064.69
2023-03-26T00:11:08.743Z,100077.94
2023-03-26T00:15:10.497Z,100080.59
2023-03-26T00:19:12.596Z,100074.59
2023-03-26T00:23:14.069Z,100071.13
2023-03-26T00:27:15.381Z,100067.16
2023-03-26T00:31:17.542Z,100061.03
2023-03-26T00:35:19.000Z,100056.72
2023-03-26T00:39:21.754Z,100058.19
2023-03-26T00:43:23.658Z,100050.72
2023-03-26T00:47:26.172Z,100047.28
2023-03-26T00:51:28.578Z,100049.94
2023-03-26T00:55:30.028Z,100045.41
2023-03-26T00:59:31.874Z,100037.34
2023-03-26T01:03:35.765Z,100028.88
2023-03-26T01:07:37.381Z,100026.41
2023-03-26T01:11:38.784Z,100018.94
2023-03-26T01:15:41.808Z,100006.69
2023-03-26T01:20:19.237Z,99997.38
2023-03-26T01:24:22.012Z,99992.56
2023-03-26T01:28:25.244Z,99984.06
2023-03-26T01:33:14.256Z,99983.22
2023-03-26T01:37:52.994Z,99981.88
2023-03-26T01:42:02.775Z,99973.63
2023-03-26T01:46:08.452Z,99972.41
2023-03-26T01:50:10.482Z,99968.63
2023-03-26T01:54:19.760Z,99957.44
2023-03-26T01:58:43.176Z,99962.91
2023-03-26T02:03:08.844Z,99958.00
2023-03-26T02:07:20.997Z,99948.66
2023-03-26T02:11:23.294Z,99940.28
2023-03-26T02:15:25.031Z,99929.16
2023-03-26T02:19:26.697Z,99931.88
2023-03-26T02:23:29.575Z,99922.97
2023-03-26T02:27:31.026Z,99916.53
2023-03-26T02:31:32.429Z,99907.09
2023-03-26T02:35:33.929Z,99904.13
2023-03-26T02:39:36.232Z,99891.22
2023-03-26T02:43:37.525Z,99885.94
2023-03-26T02:47:39.132Z,99879.59
2023-03-26T02:51:40.718Z,99870.03
2023-03-26T02:55:42.081Z,99862.75
2023-03-26T02:59:46.279Z,99862.72
2023-03-26T03:03:47.646Z,99851.75
2023-03-26T03:07:49.047Z,99855.09
2023-03-26T03:11:53.840Z,99849.97
2023-03-26T03:15:56.101Z,99844.69
2023-03-26T03:19:57.951Z,99837.09
2023-03-26T03:23:59.758Z,99825.31
2023-03-26T03:28:02.378Z,99828.81
2023-03-26T03:32:03.961Z,99815.88
2023-03-26T03:36:10.463Z,99820.34
2023-03-26T03:40:21.691Z,99820.53
2023-03-26T03:44:23.193Z,99815.25
2023-03-26T03:48:24.598Z,99803.44
2023-03-26T03:52:27.930Z,99798.63
2023-03-26T03:56:29.292Z,99794.56
2023-03-26T04:00:30.654Z,99790.25
2023-03-26T04:04:32.900Z,99782.97
2023-03-26T04:08:34.867Z,99770.53
2023-03-26T04:12:36.329Z,99762.97
2023-03-26T04:16:37.894Z,99751.69
2023-03-26T04:20:46.645Z,99743.78
2023-03-26T04:24:49.609Z,99736.31
2023-03-26T04:28:56.644Z,99731.03
2023-03-26T04:32:58.660Z,99729.88
2023-03-26T04:37:02.528Z,99724.75
2023-03-26T04:41:07.472Z,99724.91
2023-03-26T04:45:10.896Z,99711.00
2023-03-26T04:49:12.290Z,99710.50
2023-03-26T04:53:19.179Z,99698.75
2023-03-26T04:57:37.113Z,99698.44
2023-03-26T05:01:40.099Z,99688.19
2023-03-26T05:05:41.617Z,99686.19
2023-03-26T05:09:42.919Z,99676.59
2023-03-26T05:13:44.283Z,99677.09
2023-03-26T05:17:46.640Z,99666.28
2023-03-26T05:21:48.228Z,99671.97
2023-03-26T05:25:49.684Z,99659.72
2023-03-26T05:29:51.234Z,99658.91
2023-03-26T05:33:53.003Z,99647.81
2023-03-26T05:37:54.493Z,99643.31
2023-03-26T05:41:56.313Z,99639.09
2023-03-26T05:45:57.698Z,99627.75
2023-03-26T05:49:59.300Z,99628.91
2023-03-26T05:54:00.986Z,99623.81
2023-03-26T05:58:02.769Z,99629.00
2023-03-26T06:02:04.189Z,99614.28
2023-03-26T06:06:11.823Z,99608.31
2023-03-26T06:10:18.018Z,99601.25
2023-03-26T06:14:19.966Z,99586.47
2023-03-26T06:18:22.867Z,99575.22
2023-03-26T06:22:24.386Z,99569.50
2023-03-26T06:26:25.875Z,99566.00
2023-03-26T06:30:27.279Z,99564.00
2023-03-26T06:34:28.671Z,99568.66
2023-03-26T06:38:30.220Z,99561.41
2023-03-26T06:43:06.722Z,99569.47
2023-03-26T06:46:52.894Z,99550.91
2023-03-26T06:50:54.856Z,99555.44
2023-03-26T06:54:56.633Z,99553.63
2023-03-26T06:58:58.246Z,99542.84
2023-03-26T07:02:59.621Z,99532.34
2023-03-26T07:07:01.122Z,99532.97
2023-03-26T07:11:02.641Z,99516.16
2023-03-26T07:15:04.622Z,99522.59
2023-03-26T07:19:06.061Z,99525.16
2023-03-26T07:23:07.958Z,99527.91
2023-03-26T07:27:37.505Z,99517.28
2023-03-26T07:31:52.333Z,99510.28
2023-03-26T07:36:11.733Z,99506.16
2023-03-26T07:40:50.900Z,99503.25
2023-03-26T07:45:15.781Z,99495.81
2023-03-26T07:49:17.782Z,99490.38
2023-03-26T07:53:20.021Z,99489.97
2023-03-26T07:57:39.819Z,99484.41
2023-03-26T08:01:44.218Z,99480.97
2023-03-26T08:05:52.095Z,99473.88
2023-03-26T08:10:10.460Z,99473.63
2023-03-26T08:14:21.811Z,99460.81
2023-03-26T08:18:48.596Z,99465.75
2023-03-26T08:22:57.277Z,99470.22
2023-03-26T08:27:37.767Z,99462.00
2023-03-26T08:31:43.651Z,99453.84
2023-03-26T08:35:46.045Z,99462.25
2023-03-26T08:39:47.452Z,99456.69
2023-03-26T08:44:00.877Z,99455.38
2023-03-26T08:48:23.705Z,99458.19
2023-03-26T08:52:34.292Z,99447.75
2023-03-26T08:56:46.206Z,99441.63
2023-03-26T09:01:02.527Z,99442.72
2023-03-26T09:05:34.521Z,99444.47
2023-03-26T09:10:09.061Z,99438.88
2023-03-26T09:14:35.738Z,99429.78
2023-03-26T09:18:42.716Z,99421.53
2023-03-26T09:23:13.954Z,99412.78
2023-03-26T09:27:35.829Z,99403.53
2023-03-26T09:31:59.619Z,99394.97
2023-03-26T09:36:19.557Z,99388.69
2023-03-26T09:40:36.807Z,99380.44
2023-03-26T09:44:59.659Z,99373.84
2023-03-26T09:49:27.544Z,99379.97
2023-03-26T09:54:07.602Z,99370.56
2023-03-26T09:58:41.281Z,99365.84
2023-03-26T10:03:07.698Z,99352.63
2023-03-26T10:07:36.593Z,99350.09
2023-03-26T10:12:00.943Z,99350.66
2023-03-26T10:16:26.233Z,99339.50
2023-03-26T10:20:37.743Z,99334.63
2023-03-26T10:24:45.836Z,99325.25
2023-03-26T10:29:13.913Z,99330.38
2023-03-26T10:37:37.529Z,99323.66
2023-03-26T10:41:53.974Z,99316.63
2023-03-26T10:46:23.806Z,99308.22
2023-03-26T10:50:49.882Z,99302.41
2023-03-26T10:55:14.152Z,99292.97
2023-03-26T10:59:17.615Z,99289.97
2023-03-26T11:03:31.522Z,99282.97
2023-03-26T11:07:52.321Z,99279.13
2023-03-26T11:11:56.722Z,99272.81
2023-03-26T11:16:05.358Z,99274.41
2023-03-26T11:20:16.836Z,99268.16
2023-03-26T11:24:36.466Z,99266.91
2023-03-26T11:29:03.474Z,99267.16
2023-03-26T11:33:16.844Z,99270.09
2023-03-26T11:37:38.561Z,99261.59
2023-03-26T11:41:39.854Z,99251.91
2023-03-26T11:45:46.510Z,99246.38
2023-03-26T11:49:51.786Z,99253.84
2023-03-26T11:53:54.426Z,99245.47
2023-03-26T11:57:59.223Z,99241.53
2023-03-26T12:02:09.842Z,99246.63
2023-03-26T12:06:32.867Z,99244.34
2023-03-26T12:10:38.748Z,99241.59
2023-03-26T12:14:42.460Z,99237.78
2023-03-26T12:18:45.630Z,99235.66
2023-03-26T12:22:47.953Z,99242.34
2023-03-26T12:26:57.878Z,99241.09
2023-03-26T12:31:03.196Z,99236.72
2023-03-26T12:35:07.500Z,99243.88
2023-03-26T12:40:10.632Z,99248.47
2023-03-26T12:44:50.184Z,99248.22
2023-03-26T12:48:17.074Z,99246.47
2023-03-26T12:52:33.246Z,99247.09
2023-03-26T12:57:12.250Z,99255.59
2023-03-26T13:01:33.156Z,99252.47
2023-03-26T13:05:50.863Z,99254.22
2023-03-26T13:10:10.454Z,99267.00
2023-03-26T13:14:14.800Z,99270.38
2023-03-26T13:18:21.897Z,99279.47
2023-03-26T13:22:56.326Z,99283.28
2023-03-26T13:27:06.767Z,99288.25
2023-03-26T13:31:21.822Z,99290.56
2023-03-26T13:35:42.138Z,99288.56
2023-03-26T13:40:22.184Z,99282.53
2023-03-26T13:45:04.532Z,99286.25
2023-03-26T13:49:13.901Z,99284.88
2023-03-26T13:53:24.222Z,99295.81
2023-03-26T13:57:33.372Z,99293.94
2023-03-26T14:01:41.161Z,99299.81
2023-03-26T14:05:47.068Z,99290.06
2023-03-26T14:10:01.444Z,99304.16
2023-03-26T14:14:12.044Z,99299.97
2023-03-26T14:18:38.148Z,99315.09
2023-03-26T14:23:00.920Z,99316.38
2023-03-26T14:27:15.546Z,99317.75
2023-03-26T14:31:20.561Z,99318.31
2023-03-26T14:35:34.935Z,99328.00
2023-03-26T14:39:42.127Z,99329.38
2023-03-26T14:44:03.461Z,99331.16
2023-03-26T14:48:23.013Z,99333.59
2023-03-26T14:53:01.138Z,99339.66
2023-03-26T14:57:25.125Z,99346.63
2023-03-26T15:01:29.539Z,99348.03
2023-03-26T15:05:46.587Z,99354.75
2023-03-26T15:10:15.471Z,99358.34
2023-03-26T15:14:38.474Z,99363.53
2023-03-26T15:19:08.196Z,99373.88
2023-03-26T15:23:26.980Z,99374.16
2023-03-26T15:27:50.404Z,99383.09
2023-03-26T15:32:04.983Z,99391.41
2023-03-26T15:36:44.661Z,99388.31
2023-03-26T15:41:13.735Z,99400.66
2023-03-26T15:45:38.718Z,99408.25
2023-03-26T15:50:13.965Z,99411.25
2023-03-26T15:54:31.566Z,99424.75
2023-03-26T15:59:20.571Z,99432.09
2023-03-26T16:03:34.344Z,99436.91
2023-03-26T16:08:15.732Z,99448.81
2023-03-26T16:12:17.113Z,99450.66
2023-03-26T16:16:24.163Z,99462.22
2023-03-26T16:20:34.972Z,99468.94
2023-03-26T16:24:44.433Z,99475.13
2023-03-26T16:28:45.753Z,99484.75
2023-03-26T16:33:18.772Z,99480.66
2023-03-26T16:37:37.274Z,99498.06
2023-03-26T16:41:38.522Z,99505.66
2023-03-26T16:45:45.868Z,99514.06
2023-03-26T16:50:07.409Z,99519.31
2023-03-26T16:54:41.034Z,99538.53
2023-03-26T16:58:56.215Z,99543.13
2023-03-26T17:03:28.124Z,99554.44
2023-03-26T17:07:38.814Z,99557.34
2023-03-26T17:11:50.832Z,99573.25
2023-03-26T17:16:12.533Z,99578.06
2023-03-26T17:20:33.314Z,99590.94
2023-03-26T17:24:53.562Z,99598.75
2023-03-26T17:29:09.819Z,99618.91
2023-03-26T17:33:23.145Z,99631.28
2023-03-26T17:37:26.360Z,99640.41
2023-03-26T17:41:51.200Z,99654.19
2023-03-26T17:46:02.668Z,99654.94
2023-03-26T17:50:13.652Z,99667.81
2023-03-26T17:54:22.506Z,99670.72
2023-03-26T17:58:23.975Z,99680.22
2023-03-26T18:02:34.379Z,99689.00
2023-03-26T18:06:49.636Z,99700.84
2023-03-26T18:11:03.075Z,99720.00
2023-03-26T18:15:22.489Z,99722.50
2023-03-26T18:19:24.992Z,99736.06
2023-03-26T18:23:36.638Z,99745.34
2023-03-26T18:27:40.833Z,99753.69
2023-03-26T18:31:42.971Z,99762.66
2023-03-26T18:35:54.328Z,99779.09
2023-03-26T18:39:59.071Z,99791.31
2023-03-26T18:44:05.698Z,99794.69
2023-03-26T18:48:17.727Z,99802.91
2023-03-26T18:52:20.777Z,99810.34
2023-03-26T18:56:36.141Z,99830.94
2023-03-26T19:00:40.086Z,99827.91
2023-03-26T19:04:46.062Z,99842.00
2023-03-26T19:08:48.770Z,99838.63
2023-03-26T19:12:58.421Z,99851.97
2023-03-26T19:17:02.579Z,99860.28
2023-03-26T19:21:04.551Z,99872.00
2023-03-26T19:25:16.519Z,99881.69
2023-03-26T19:29:26.088Z,99887.66
2023-03-26T19:33:34.972Z,99893.56
2023-03-26T19:37:50.255Z,99900.84
2023-03-26T19:41:52.812Z,99913.28
2023-03-26T19:45:59.989Z,99912.88
2023-03-26T19:50:26.242Z,99912.50
2023-03-26T19:54:30.418Z,99933.50
2023-03-26T19:58:33.141Z,99943.22
2023-03-26T20:02:34.637Z,99961.03
2023-03-26T20:06:43.295Z,99954.69
2023-03-26T20:10:45.639Z,99961.59
2023-03-26T20:14:48.338Z,99957.69
2023-03-26T20:18:50.659Z,99973.28
2023-03-26T20:22:55.214Z,99983.44
2023-03-26T20:26:56.642Z,99986.69
2023-03-26T20:30:58.172Z,99986.72
2023-03-26T20:34:59.740Z,99997.06
2023-03-26T20:39:03.222Z,100011.03
2023-03-26T20:43:09.649Z,100015.28
2023-03-26T20:47:11.464Z,100025.63
2023-03-26T20:51:14.829Z,100041.59
2023-03-26T20:55:22.223Z,100052.06
2023-03-26T20:59:28.785Z,100060.56
2023-03-26T21:03:41.496Z,100062.41
2023-03-26T21:07:49.395Z,100076.03
2023-03-26T21:12:24.838Z,100078.03
2023-03-26T21:16:29.997Z,100086.16
2023-03-26T21:25:20.749Z,100114.66
2023-03-26T21:29:26.162Z,100116.78
2023-03-26T21:33:28.391Z,100135.84
2023-03-26T21:37:30.947Z,100141.25
2023-03-26T21:41:41.296Z,100149.41
2023-03-26T21:45:43.768Z,100157.66
2023-03-26T21:49:45.505Z,100162.03
2023-03-26T21:53:47.425Z,100177.53
2023-03-26T21:58:13.582Z,100185.72
2023-03-26T22:02:27.065Z,100191.47
2023-03-26T22:07:04.205Z,100203.63
2023-03-26T22:11:07.257Z,100227.28
2023-03-26T22:15:09.033Z,100223.28
2023-03-26T22:19:12.447Z,100244.81
2023-03-26T22:23:14.589Z,100257.09
2023-03-26T22:27:16.019Z,100259.22
2023-03-26T22:31:17.597Z,100269.69
2023-03-26T22:35:19.925Z,100284.56
2023-03-26T22:39:21.505Z,100293.75
2023-03-26T22:43:24.620Z,100306.53
2023-03-26T22:47:25.928Z,100323.56
2023-03-26T22:51:34.398Z,100330.97
2023-03-26T22:55:59.138Z,100346.19
2023-03-26T23:00:12.270Z,100363.09
2023-03-26T23:08:54.709Z,100384.88
2023-03-26T23:12:56.176Z,100392.19
2023-03-26T23:16:58.296Z,100401.59
2023-03-26T23:21:00.037Z,100403.00
2023-03-26T23:25:01.925Z,100417.59
2023-03-26T23:29:04.890Z,100429.16
2023-03-26T23:33:06.410Z,100442.44
2023-03-26T23:37:10.906Z,100448.19
2023-03-26T23:41:16.464Z,100453.75
2023-03-26T23:45:17.749Z,100477.53
2023-03-26T23:49:19.356Z,100481.00
2023-03-26T23:53:24.304Z,100487.31
2023-03-26T23:57:27.942Z,100505.19
